createdAt,value
2019-04-04T17:13:46.445Z,0.63
2019-04-04T17:16:14.840Z,0.40
2019-04-04T17:18:43.164Z,0.53
2019-04-04T17:21:11.429Z,1.00
2019-04-04T17:23:39.714Z,1.30
2019-04-04T17:26:07.992Z,1.00
2019-04-04T17:28:36.422Z,0.80
2019-04-04T17:31:07.112Z,1.10
2019-04-04T17:33:34.777Z,1.60
2019-04-04T17:36:03.022Z,1.63
2019-04-04T17:38:31.761Z,2.17
2019-04-04T17:41:00.006Z,2.17
2019-04-04T17:43:28.751Z,2.27
2019-04-04T17:45:57.577Z,2.33
2019-04-04T17:48:25.863Z,1.30
2019-04-04T17:50:54.095Z,6.10
2019-04-04T17:53:22.514Z,1.50
2019-04-04T17:55:50.858Z,2.03
2019-04-04T17:58:19.538Z,1.80
2019-04-04T18:00:47.938Z,1.73
2019-04-04T18:03:16.208Z,1.83
2019-04-04T18:05:44.535Z,1.40
2019-04-04T18:08:15.910Z,1.20
2019-04-04T18:10:44.169Z,0.93
2019-04-04T18:13:12.439Z,1.50
2019-04-04T18:15:40.680Z,0.97
2019-04-04T18:18:09.923Z,1.33
2019-04-04T18:20:38.185Z,1.40
2019-04-04T18:23:06.471Z,1.47
2019-04-04T18:25:34.816Z,1.33
2019-04-04T18:28:03.048Z,1.90
2019-04-04T18:30:31.291Z,0.87
2019-04-04T18:32:59.574Z,0.80
2019-04-04T18:35:27.888Z,1.20
2019-04-04T18:37:56.356Z,1.30
2019-04-04T18:40:24.598Z,1.00
2019-04-04T18:42:53.939Z,1.50
2019-04-04T18:45:22.308Z,2.00
2019-04-04T18:47:50.551Z,1.37
2019-04-04T18:50:18.829Z,1.40
2019-04-04T18:52:47.073Z,1.60
2019-04-04T18:55:20.049Z,1.50
2019-04-04T18:57:45.307Z,1.30
2019-04-04T19:00:14.488Z,1.17
2019-04-04T19:05:10.338Z,2.20
2019-04-04T19:07:39.857Z,1.73
2019-04-04T19:15:07.789Z,1.30
2019-04-04T19:17:36.296Z,1.97
2019-04-04T19:20:10.189Z,2.53
2019-04-04T19:22:38.729Z,2.00
2019-04-04T19:25:07.066Z,1.73
2019-04-04T19:27:35.324Z,1.80
2019-04-04T19:30:09.921Z,1.90
2019-04-04T19:32:38.181Z,1.97
2019-04-04T19:35:07.093Z,1.47
2019-04-04T19:37:35.543Z,1.80
2019-04-04T19:40:04.972Z,1.53
2019-04-04T19:42:40.266Z,1.82
2019-04-04T19:45:08.544Z,1.60
2019-04-04T19:47:36.798Z,1.70
2019-04-04T19:50:08.337Z,1.60
2019-04-04T19:52:36.675Z,1.63
2019-04-04T19:55:05.329Z,1.70
2019-04-04T19:57:33.568Z,1.80
2019-04-04T20:00:01.853Z,2.13
2019-04-04T20:02:30.095Z,2.05
2019-04-04T20:04:58.366Z,2.93
2019-04-04T20:07:26.643Z,3.97
2019-04-04T20:09:54.920Z,3.10
2019-04-04T20:12:23.169Z,3.90
2019-04-04T20:14:51.514Z,2.80
2019-04-04T20:17:19.771Z,3.10
2019-04-04T20:19:48.087Z,2.93
2019-04-04T20:22:16.315Z,2.63
2019-04-04T20:24:44.952Z,4.13
2019-04-04T20:27:13.215Z,3.58
2019-04-04T20:29:41.462Z,3.53
2019-04-04T20:32:09.742Z,2.67
2019-04-04T20:34:38.946Z,2.63
2019-04-04T20:37:07.225Z,2.12
2019-04-04T20:39:35.463Z,1.83
2019-04-04T20:42:03.801Z,2.40
2019-04-04T20:44:32.050Z,1.80
2019-04-04T20:47:00.418Z,1.50
2019-04-04T20:49:29.196Z,1.33
2019-04-04T20:51:57.547Z,1.97
2019-04-04T20:54:25.882Z,2.00
2019-04-04T20:56:54.276Z,2.03
2019-04-04T20:59:22.802Z,1.93
2019-04-04T21:01:51.340Z,1.67
2019-04-04T21:04:19.863Z,1.30
2019-04-04T21:06:48.270Z,1.40
2019-04-04T21:09:16.641Z,1.70
2019-04-04T21:11:44.913Z,1.53
2019-04-04T21:14:13.557Z,1.60
2019-04-04T21:16:41.881Z,1.53
2019-04-04T21:19:11.087Z,1.93
2019-04-04T21:21:39.513Z,2.08
2019-04-04T21:24:07.906Z,2.17
2019-04-04T21:26:36.183Z,1.90
2019-04-04T21:29:04.432Z,2.27
2019-04-04T21:31:32.726Z,2.53
2019-04-04T21:34:00.979Z,2.43
2019-04-04T21:36:29.256Z,2.07
2019-04-04T21:38:57.516Z,2.37
2019-04-04T21:41:25.799Z,2.50
2019-04-04T21:43:54.046Z,2.60
2019-04-04T21:46:22.412Z,2.33
2019-04-04T21:48:50.679Z,2.67
2019-04-04T21:51:18.918Z,2.33
2019-04-04T21:53:47.181Z,4.53
2019-04-04T21:56:15.466Z,3.80
2019-04-04T21:58:43.747Z,2.07
2019-04-04T22:01:12.167Z,1.50
2019-04-04T22:03:40.446Z,1.70
2019-04-04T22:06:08.702Z,1.73
2019-04-04T22:08:36.979Z,1.67
2019-04-04T22:11:05.267Z,2.00
2019-04-04T22:13:33.578Z,2.23
2019-04-04T22:16:01.827Z,2.27
2019-04-04T22:18:30.103Z,2.70
2019-04-04T22:20:58.355Z,2.30
2019-04-04T22:23:26.635Z,2.50
2019-04-04T22:25:54.890Z,2.17
2019-04-04T22:28:23.166Z,2.73
2019-04-04T22:30:51.406Z,3.37
2019-04-04T22:33:19.683Z,3.60
2019-04-04T22:35:47.949Z,3.37
2019-04-04T22:38:16.237Z,4.73
2019-04-04T22:40:44.510Z,6.10
2019-04-04T22:43:12.775Z,3.40
2019-04-04T22:45:41.024Z,2.00
2019-04-04T22:48:09.450Z,2.30
2019-04-04T22:50:37.695Z,2.63
2019-04-04T22:53:05.957Z,2.23
2019-04-04T22:55:34.273Z,1.93
2019-04-04T22:58:02.548Z,2.23
2019-04-04T23:00:30.796Z,2.40
2019-04-04T23:03:00.645Z,2.67
2019-04-04T23:07:56.532Z,1.70
2019-04-04T23:10:24.777Z,2.27
2019-04-04T23:12:53.059Z,2.67
2019-04-04T23:15:21.313Z,3.03
2019-04-04T23:17:49.688Z,2.43
2019-04-04T23:20:17.961Z,2.80
2019-04-04T23:22:52.694Z,2.83
2019-04-04T23:25:16.205Z,2.80
2019-04-04T23:27:44.487Z,2.93
2019-04-04T23:30:12.919Z,2.70
2019-04-04T23:32:41.174Z,2.33
2019-04-04T23:35:09.457Z,2.40
2019-04-04T23:37:37.701Z,3.17
2019-04-04T23:40:05.969Z,2.73
2019-04-04T23:42:34.287Z,2.50
2019-04-04T23:45:02.561Z,2.77
2019-04-04T23:47:42.172Z,2.90
2019-04-04T23:50:00.792Z,3.37
2019-04-04T23:52:29.110Z,2.67
2019-04-04T23:54:57.385Z,2.43
2019-04-04T23:57:25.645Z,2.00
2019-04-04T23:59:53.999Z,2.60
